sensor_id;sensor_type;location;lat;lon;timestamp;P1;durP1;ratioP1;P2;durP2;ratioP2
908;SDS011;441;51.192;6.788;2023-05-07T00:00:36;5.77;;;5.60;;
908;SDS011;441;51.192;6.788;2023-05-07T00:03:03;6.33;;;6.13;;
908;SDS011;441;51.192;6.788;2023-05-07T00:05:30;6.00;;;5.80;;
908;SDS011;441;51.192;6.788;2023-05-07T00:07:57;6.50;;;5.97;;
908;SDS011;441;51.192;6.788;2023-05-07T00:10:25;5.83;;;5.63;;
908;SDS011;441;51.192;6.788;2023-05-07T00:12:52;5.90;;;5.70;;
908;SDS011;441;51.192;6.788;2023-05-07T00:15:19;6.40;;;6.10;;
908;SDS011;441;51.192;6.788;2023-05-07T00:17:46;6.27;;;6.07;;
908;SDS011;441;51.192;6.788;2023-05-07T00:20:13;6.10;;;5.90;;
908;SDS011;441;51.192;6.788;2023-05-07T00:22:40;5.77;;;5.53;;
908;SDS011;441;51.192;6.788;2023-05-07T00:25:07;5.93;;;5.63;;
908;SDS011;441;51.192;6.788;2023-05-07T00:27:36;6.40;;;6.20;;
908;SDS011;441;51.192;6.788;2023-05-07T00:30:03;7.10;;;6.83;;
908;SDS011;441;51.192;6.788;2023-05-07T00:32:32;6.60;;;6.40;;
908;SDS011;441;51.192;6.788;2023-05-07T00:34:58;5.53;;;5.43;;
908;SDS011;441;51.192;6.788;2023-05-07T00:37:25;6.00;;;5.80;;
908;SDS011;441;51.192;6.788;2023-05-07T00:39:52;5.70;;;5.50;;
908;SDS011;441;51.192;6.788;2023-05-07T00:42:19;5.57;;;5.37;;
908;SDS011;441;51.192;6.788;2023-05-07T00:44:47;5.60;;;5.50;;
908;SDS011;441;51.192;6.788;2023-05-07T00:47:15;6.20;;;5.90;;
908;SDS011;441;51.192;6.788;2023-05-07T00:49:43;5.43;;;5.23;;
908;SDS011;441;51.192;6.788;2023-05-07T00:52:11;5.80;;;5.70;;
908;SDS011;441;51.192;6.788;2023-05-07T00:54:40;5.83;;;5.73;;
908;SDS011;441;51.192;6.788;2023-05-07T00:57:08;6.00;;;5.80;;
908;SDS011;441;51.192;6.788;2023-05-07T00:59:36;5.90;;;5.80;;
908;SDS011;441;51.192;6.788;2023-05-07T01:02:04;6.43;;;6.23;;
908;SDS011;441;51.192;6.788;2023-05-07T01:04:31;6.87;;;6.57;;
908;SDS011;441;51.192;6.788;2023-05-07T01:06:58;6.60;;;6.30;;
908;SDS011;441;51.192;6.788;2023-05-07T01:09:27;7.33;;;7.03;;
908;SDS011;441;51.192;6.788;2023-05-07T01:11:54;6.00;;;5.80;;
908;SDS011;441;51.192;6.788;2023-05-07T01:14:22;6.33;;;6.13;;
908;SDS011;441;51.192;6.788;2023-05-07T01:16:50;6.23;;;6.03;;
908;SDS011;441;51.192;6.788;2023-05-07T01:19:19;6.23;;;5.93;;
908;SDS011;441;51.192;6.788;2023-05-07T01:21:47;6.37;;;6.07;;
908;SDS011;441;51.192;6.788;2023-05-07T01:24:16;6.40;;;6.20;;
908;SDS011;441;51.192;6.788;2023-05-07T01:26:43;6.40;;;5.90;;
908;SDS011;441;51.192;6.788;2023-05-07T01:29:10;6.20;;;6.00;;
908;SDS011;441;51.192;6.788;2023-05-07T01:31:37;6.00;;;5.80;;
908;SDS011;441;51.192;6.788;2023-05-07T01:34:06;6.27;;;5.90;;
908;SDS011;441;51.192;6.788;2023-05-07T01:36:36;6.47;;;6.17;;
908;SDS011;441;51.192;6.788;2023-05-07T01:39:05;6.40;;;6.20;;
908;SDS011;441;51.192;6.788;2023-05-07T01:41:34;5.87;;;5.77;;
908;SDS011;441;51.192;6.788;2023-05-07T01:44:01;6.50;;;6.30;;
908;SDS011;441;51.192;6.788;2023-05-07T01:46:30;5.10;;;5.00;;
908;SDS011;441;51.192;6.788;2023-05-07T01:48:58;5.70;;;5.50;;
908;SDS011;441;51.192;6.788;2023-05-07T01:51:25;5.90;;;5.70;;
908;SDS011;441;51.192;6.788;2023-05-07T01:53:52;5.60;;;5.40;;
908;SDS011;441;51.192;6.788;2023-05-07T01:56:19;5.23;;;5.13;;
908;SDS011;441;51.192;6.788;2023-05-07T01:58:48;4.70;;;4.60;;
908;SDS011;441;51.192;6.788;2023-05-07T02:01:16;5.40;;;5.20;;
908;SDS011;441;51.192;6.788;2023-05-07T02:03:44;5.10;;;5.00;;
908;SDS011;441;51.192;6.788;2023-05-07T02:06:11;4.93;;;4.83;;
908;SDS011;441;51.192;6.788;2023-05-07T02:08:37;5.37;;;5.17;;
908;SDS011;441;51.192;6.788;2023-05-07T02:11:04;5.00;;;4.90;;
908;SDS011;441;51.192;6.788;2023-05-07T02:13:31;5.00;;;4.90;;
908;SDS011;441;51.192;6.788;2023-05-07T02:16:00;5.00;;;4.90;;
908;SDS011;441;51.192;6.788;2023-05-07T02:18:27;5.10;;;4.90;;
908;SDS011;441;51.192;6.788;2023-05-07T02:20:54;4.87;;;4.77;;
908;SDS011;441;51.192;6.788;2023-05-07T02:23:21;5.20;;;5.10;;
908;SDS011;441;51.192;6.788;2023-05-07T02:25:48;5.57;;;5.37;;
908;SDS011;441;51.192;6.788;2023-05-07T02:28:15;5.30;;;5.10;;
908;SDS011;441;51.192;6.788;2023-05-07T02:30:42;5.27;;;5.07;;
908;SDS011;441;51.192;6.788;2023-05-07T02:33:10;5.33;;;5.13;;
908;SDS011;441;51.192;6.788;2023-05-07T02:35:37;5.00;;;4.90;;
908;SDS011;441;51.192;6.788;2023-05-07T02:38:04;5.03;;;4.93;;
908;SDS011;441;51.192;6.788;2023-05-07T02:40:31;5.33;;;5.20;;
908;SDS011;441;51.192;6.788;2023-05-07T02:42:59;5.27;;;5.07;;
908;SDS011;441;51.192;6.788;2023-05-07T02:45:26;5.00;;;4.90;;
908;SDS011;441;51.192;6.788;2023-05-07T02:47:53;5.20;;;5.00;;
908;SDS011;441;51.192;6.788;2023-05-07T02:50:21;4.73;;;4.60;;
908;SDS011;441;51.192;6.788;2023-05-07T02:52:48;4.90;;;4.80;;
908;SDS011;441;51.192;6.788;2023-05-07T02:55:15;5.63;;;5.43;;
908;SDS011;441;51.192;6.788;2023-05-07T02:57:42;5.33;;;5.13;;
908;SDS011;441;51.192;6.788;2023-05-07T03:00:12;5.40;;;5.10;;
908;SDS011;441;51.192;6.788;2023-05-07T03:02:40;5.47;;;5.27;;
908;SDS011;441;51.192;6.788;2023-05-07T03:05:08;5.20;;;5.10;;
908;SDS011;441;51.192;6.788;2023-05-07T03:07:36;5.20;;;5.10;;
908;SDS011;441;51.192;6.788;2023-05-07T03:10:03;5.50;;;5.30;;
908;SDS011;441;51.192;6.788;2023-05-07T03:12:31;4.97;;;4.77;;
908;SDS011;441;51.192;6.788;2023-05-07T03:14:58;5.60;;;5.40;;
908;SDS011;441;51.192;6.788;2023-05-07T03:17:25;5.17;;;5.07;;
908;SDS011;441;51.192;6.788;2023-05-07T03:19:51;4.83;;;4.63;;
908;SDS011;441;51.192;6.788;2023-05-07T03:22:18;5.07;;;4.87;;
908;SDS011;441;51.192;6.788;2023-05-07T03:24:47;4.77;;;4.67;;
908;SDS011;441;51.192;6.788;2023-05-07T03:27:13;5.80;;;5.27;;
908;SDS011;441;51.192;6.788;2023-05-07T03:29:40;5.20;;;5.00;;
908;SDS011;441;51.192;6.788;2023-05-07T03:32:07;5.30;;;5.10;;
908;SDS011;441;51.192;6.788;2023-05-07T03:34:34;4.90;;;4.80;;
908;SDS011;441;51.192;6.788;2023-05-07T03:37:01;4.73;;;4.63;;
908;SDS011;441;51.192;6.788;2023-05-07T03:39:28;5.20;;;5.10;;
908;SDS011;441;51.192;6.788;2023-05-07T03:41:56;5.80;;;5.50;;
908;SDS011;441;51.192;6.788;2023-05-07T03:44:23;5.27;;;5.17;;
908;SDS011;441;51.192;6.788;2023-05-07T03:46:50;5.20;;;5.10;;
908;SDS011;441;51.192;6.788;2023-05-07T03:49:17;5.20;;;5.00;;
908;SDS011;441;51.192;6.788;2023-05-07T03:51:44;5.97;;;5.67;;
908;SDS011;441;51.192;6.788;2023-05-07T03:54:11;4.93;;;4.83;;
908;SDS011;441;51.192;6.788;2023-05-07T03:56:38;4.60;;;4.50;;
908;SDS011;441;51.192;6.788;2023-05-07T03:59:06;5.00;;;4.90;;
908;SDS011;441;51.192;6.788;2023-05-07T04:01:33;4.83;;;4.73;;
908;SDS011;441;51.192;6.788;2023-05-07T04:04:00;5.03;;;4.93;;
908;SDS011;441;51.192;6.788;2023-05-07T04:06:28;5.20;;;5.10;;
908;SDS011;441;51.192;6.788;2023-05-07T04:08:55;5.33;;;5.20;;
908;SDS011;441;51.192;6.788;2023-05-07T04:11:22;5.47;;;5.27;;
908;SDS011;441;51.192;6.788;2023-05-07T04:13:49;5.27;;;5.03;;
908;SDS011;441;51.192;6.788;2023-05-07T04:16:18;5.13;;;5.03;;
908;SDS011;441;51.192;6.788;2023-05-07T04:18:45;5.27;;;5.10;;
908;SDS011;441;51.192;6.788;2023-05-07T04:21:14;5.43;;;5.33;;
908;SDS011;441;51.192;6.788;2023-05-07T04:23:42;4.80;;;4.70;;
908;SDS011;441;51.192;6.788;2023-05-07T04:26:09;4.90;;;4.70;;
908;SDS011;441;51.192;6.788;2023-05-07T04:28:36;4.97;;;4.60;;
908;SDS011;441;51.192;6.788;2023-05-07T04:31:03;5.00;;;4.90;;
908;SDS011;441;51.192;6.788;2023-05-07T04:33:31;4.70;;;4.60;;
908;SDS011;441;51.192;6.788;2023-05-07T04:35:58;4.43;;;4.33;;
908;SDS011;441;51.192;6.788;2023-05-07T04:38:29;5.40;;;5.20;;
908;SDS011;441;51.192;6.788;2023-05-07T04:40:56;4.80;;;4.70;;
908;SDS011;441;51.192;6.788;2023-05-07T04:43:23;4.37;;;4.13;;
908;SDS011;441;51.192;6.788;2023-05-07T04:45:50;5.30;;;5.20;;
908;SDS011;441;51.192;6.788;2023-05-07T04:48:17;5.47;;;5.27;;
908;SDS011;441;51.192;6.788;2023-05-07T04:50:48;5.37;;;5.27;;
908;SDS011;441;51.192;6.788;2023-05-07T04:53:15;5.20;;;5.10;;
908;SDS011;441;51.192;6.788;2023-05-07T04:55:43;5.30;;;5.10;;
908;SDS011;441;51.192;6.788;2023-05-07T04:58:10;5.27;;;5.07;;
908;SDS011;441;51.192;6.788;2023-05-07T05:00:37;5.43;;;5.33;;
908;SDS011;441;51.192;6.788;2023-05-07T05:03:04;6.00;;;5.50;;
908;SDS011;441;51.192;6.788;2023-05-07T05:05:31;5.00;;;4.90;;
908;SDS011;441;51.192;6.788;2023-05-07T05:07:59;5.40;;;5.30;;
908;SDS011;441;51.192;6.788;2023-05-07T05:10:26;5.13;;;5.03;;
908;SDS011;441;51.192;6.788;2023-05-07T05:12:53;5.27;;;4.90;;
908;SDS011;441;51.192;6.788;2023-05-07T05:15:20;4.77;;;4.67;;
908;SDS011;441;51.192;6.788;2023-05-07T05:17:47;5.20;;;5.10;;
908;SDS011;441;51.192;6.788;2023-05-07T05:20:14;5.07;;;4.97;;
908;SDS011;441;51.192;6.788;2023-05-07T05:22:41;4.90;;;4.70;;
908;SDS011;441;51.192;6.788;2023-05-07T05:25:09;4.73;;;4.63;;
908;SDS011;441;51.192;6.788;2023-05-07T05:27:36;5.27;;;5.17;;
908;SDS011;441;51.192;6.788;2023-05-07T05:30:03;5.20;;;5.10;;
908;SDS011;441;51.192;6.788;2023-05-07T05:32:31;5.50;;;5.30;;
908;SDS011;441;51.192;6.788;2023-05-07T05:34:58;5.40;;;5.30;;
908;SDS011;441;51.192;6.788;2023-05-07T05:37:25;5.40;;;5.20;;
908;SDS011;441;51.192;6.788;2023-05-07T05:39:52;5.73;;;5.53;;
908;SDS011;441;51.192;6.788;2023-05-07T05:42:21;5.13;;;5.03;;
908;SDS011;441;51.192;6.788;2023-05-07T05:44:48;4.83;;;4.73;;
908;SDS011;441;51.192;6.788;2023-05-07T05:47:15;5.97;;;5.77;;
908;SDS011;441;51.192;6.788;2023-05-07T05:49:41;5.00;;;4.90;;
908;SDS011;441;51.192;6.788;2023-05-07T05:52:12;5.20;;;5.10;;
908;SDS011;441;51.192;6.788;2023-05-07T05:54:40;6.00;;;5.80;;
908;SDS011;441;51.192;6.788;2023-05-07T05:57:06;5.70;;;5.50;;
908;SDS011;441;51.192;6.788;2023-05-07T05:59:35;5.17;;;4.97;;
908;SDS011;441;51.192;6.788;2023-05-07T06:02:02;5.40;;;5.30;;
908;SDS011;441;51.192;6.788;2023-05-07T06:04:29;5.50;;;5.30;;
908;SDS011;441;51.192;6.788;2023-05-07T06:06:55;5.90;;;5.70;;
908;SDS011;441;51.192;6.788;2023-05-07T06:09:22;5.87;;;5.67;;
908;SDS011;441;51.192;6.788;2023-05-07T06:11:49;5.93;;;5.73;;
908;SDS011;441;51.192;6.788;2023-05-07T06:14:16;5.43;;;5.33;;
908;SDS011;441;51.192;6.788;2023-05-07T06:16:44;5.50;;;5.30;;
908;SDS011;441;51.192;6.788;2023-05-07T06:19:11;5.67;;;5.57;;
908;SDS011;441;51.192;6.788;2023-05-07T06:21:38;5.70;;;5.60;;
908;SDS011;441;51.192;6.788;2023-05-07T06:24:06;5.93;;;5.83;;
908;SDS011;441;51.192;6.788;2023-05-07T06:26:33;5.70;;;5.60;;
908;SDS011;441;51.192;6.788;2023-05-07T06:29:00;5.10;;;5.00;;
908;SDS011;441;51.192;6.788;2023-05-07T06:31:29;5.63;;;5.43;;
908;SDS011;441;51.192;6.788;2023-05-07T06:33:58;5.03;;;4.93;;
908;SDS011;441;51.192;6.788;2023-05-07T06:36:27;6.07;;;5.87;;
908;SDS011;441;51.192;6.788;2023-05-07T06:38:54;5.77;;;5.67;;
908;SDS011;441;51.192;6.788;2023-05-07T06:41:21;5.50;;;5.40;;
908;SDS011;441;51.192;6.788;2023-05-07T06:43:47;5.97;;;5.77;;
908;SDS011;441;51.192;6.788;2023-05-07T06:57:32;6.67;;;6.47;;
908;SDS011;441;51.192;6.788;2023-05-07T06:59:59;6.50;;;6.30;;
908;SDS011;441;51.192;6.788;2023-05-07T07:02:26;6.33;;;6.23;;
908;SDS011;441;51.192;6.788;2023-05-07T07:04:53;5.80;;;5.70;;
908;SDS011;441;51.192;6.788;2023-05-07T07:07:20;6.80;;;6.60;;
908;SDS011;441;51.192;6.788;2023-05-07T07:09:47;6.30;;;6.20;;
908;SDS011;441;51.192;6.788;2023-05-07T07:12:13;6.80;;;6.60;;
908;SDS011;441;51.192;6.788;2023-05-07T07:14:42;7.23;;;7.13;;
908;SDS011;441;51.192;6.788;2023-05-07T07:17:09;7.40;;;7.20;;
908;SDS011;441;51.192;6.788;2023-05-07T07:19:35;7.20;;;6.90;;
908;SDS011;441;51.192;6.788;2023-05-07T07:22:04;7.00;;;6.80;;
908;SDS011;441;51.192;6.788;2023-05-07T07:24:30;7.10;;;6.70;;
908;SDS011;441;51.192;6.788;2023-05-07T07:26:57;7.20;;;6.90;;
908;SDS011;441;51.192;6.788;2023-05-07T07:29:24;7.37;;;7.10;;
908;SDS011;441;51.192;6.788;2023-05-07T07:31:53;7.23;;;6.93;;
908;SDS011;441;51.192;6.788;2023-05-07T07:34:20;7.00;;;6.80;;
908;SDS011;441;51.192;6.788;2023-05-07T07:36:47;7.03;;;6.83;;
908;SDS011;441;51.192;6.788;2023-05-07T07:39:14;6.80;;;6.70;;
908;SDS011;441;51.192;6.788;2023-05-07T07:41:41;7.77;;;7.53;;
908;SDS011;441;51.192;6.788;2023-05-07T07:44:07;6.40;;;6.30;;
908;SDS011;441;51.192;6.788;2023-05-07T07:46:37;6.73;;;6.53;;
908;SDS011;441;51.192;6.788;2023-05-07T07:49:06;7.07;;;6.80;;
908;SDS011;441;51.192;6.788;2023-05-07T07:51:32;6.73;;;6.53;;
908;SDS011;441;51.192;6.788;2023-05-07T07:54:00;7.23;;;7.03;;
908;SDS011;441;51.192;6.788;2023-05-07T07:56:27;7.83;;;7.63;;
908;SDS011;441;51.192;6.788;2023-05-07T07:58:54;7.03;;;6.87;;
908;SDS011;441;51.192;6.788;2023-05-07T08:01:21;7.80;;;7.60;;
908;SDS011;441;51.192;6.788;2023-05-07T08:03:48;7.13;;;7.00;;
908;SDS011;441;51.192;6.788;2023-05-07T08:06:16;7.00;;;6.80;;
908;SDS011;441;51.192;6.788;2023-05-07T08:08:43;7.47;;;7.33;;
908;SDS011;441;51.192;6.788;2023-05-07T08:11:10;7.50;;;7.30;;
908;SDS011;441;51.192;6.788;2023-05-07T08:13:37;7.23;;;7.03;;
908;SDS011;441;51.192;6.788;2023-05-07T08:16:05;7.30;;;7.10;;
908;SDS011;441;51.192;6.788;2023-05-07T08:18:32;6.90;;;6.80;;
908;SDS011;441;51.192;6.788;2023-05-07T08:20:58;7.40;;;7.20;;
908;SDS011;441;51.192;6.788;2023-05-07T08:23:27;7.20;;;7.10;;
908;SDS011;441;51.192;6.788;2023-05-07T08:25:54;7.27;;;7.07;;
908;SDS011;441;51.192;6.788;2023-05-07T08:28:21;6.87;;;6.67;;
908;SDS011;441;51.192;6.788;2023-05-07T08:30:49;7.07;;;6.88;;
908;SDS011;441;51.192;6.788;2023-05-07T08:33:16;8.00;;;7.80;;
908;SDS011;441;51.192;6.788;2023-05-07T08:35:43;7.57;;;7.37;;
908;SDS011;441;51.192;6.788;2023-05-07T08:38:10;8.03;;;7.83;;
908;SDS011;441;51.192;6.788;2023-05-07T08:40:39;12.20;;;8.00;;
908;SDS011;441;51.192;6.788;2023-05-07T08:43:06;8.20;;;8.00;;
908;SDS011;441;51.192;6.788;2023-05-07T08:45:34;9.13;;;8.73;;
908;SDS011;441;51.192;6.788;2023-05-07T08:48:02;8.03;;;7.83;;
908;SDS011;441;51.192;6.788;2023-05-07T08:50:30;7.97;;;7.77;;
908;SDS011;441;51.192;6.788;2023-05-07T08:52:57;7.83;;;7.53;;
908;SDS011;441;51.192;6.788;2023-05-07T08:55:25;8.03;;;7.83;;
908;SDS011;441;51.192;6.788;2023-05-07T08:57:53;7.93;;;7.73;;
908;SDS011;441;51.192;6.788;2023-05-07T09:00:20;8.77;;;8.27;;
908;SDS011;441;51.192;6.788;2023-05-07T09:02:47;8.13;;;7.83;;
908;SDS011;441;51.192;6.788;2023-05-07T09:05:14;8.80;;;8.50;;
908;SDS011;441;51.192;6.788;2023-05-07T09:07:41;8.23;;;8.03;;
908;SDS011;441;51.192;6.788;2023-05-07T09:10:08;7.80;;;7.60;;
908;SDS011;441;51.192;6.788;2023-05-07T09:12:36;7.73;;;7.53;;
908;SDS011;441;51.192;6.788;2023-05-07T09:15:06;7.93;;;7.43;;
908;SDS011;441;51.192;6.788;2023-05-07T09:17:34;7.97;;;7.77;;
908;SDS011;441;51.192;6.788;2023-05-07T09:20:04;7.77;;;7.47;;
908;SDS011;441;51.192;6.788;2023-05-07T09:22:32;7.63;;;7.43;;
908;SDS011;441;51.192;6.788;2023-05-07T09:24:59;8.77;;;8.57;;
908;SDS011;441;51.192;6.788;2023-05-07T09:27:26;7.43;;;7.03;;
908;SDS011;441;51.192;6.788;2023-05-07T09:29:53;7.38;;;7.07;;
908;SDS011;441;51.192;6.788;2023-05-07T09:32:21;8.20;;;8.00;;
908;SDS011;441;51.192;6.788;2023-05-07T09:34:48;8.20;;;8.00;;
908;SDS011;441;51.192;6.788;2023-05-07T09:37:15;8.07;;;7.83;;
908;SDS011;441;51.192;6.788;2023-05-07T09:39:43;8.70;;;8.50;;
908;SDS011;441;51.192;6.788;2023-05-07T09:42:11;8.30;;;7.90;;
908;SDS011;441;51.192;6.788;2023-05-07T09:44:39;7.80;;;7.60;;
908;SDS011;441;51.192;6.788;2023-05-07T09:47:07;7.60;;;7.40;;
908;SDS011;441;51.192;6.788;2023-05-07T09:49:36;7.83;;;7.63;;
908;SDS011;441;51.192;6.788;2023-05-07T09:52:07;8.00;;;7.80;;
908;SDS011;441;51.192;6.788;2023-05-07T09:54:35;7.70;;;7.50;;
908;SDS011;441;51.192;6.788;2023-05-07T09:57:04;6.18;;;5.97;;
908;SDS011;441;51.192;6.788;2023-05-07T09:59:32;7.80;;;7.50;;
908;SDS011;441;51.192;6.788;2023-05-07T10:02:00;8.80;;;8.57;;
908;SDS011;441;51.192;6.788;2023-05-07T10:04:29;7.80;;;7.60;;
908;SDS011;441;51.192;6.788;2023-05-07T10:06:58;8.50;;;8.27;;
908;SDS011;441;51.192;6.788;2023-05-07T10:09:26;8.30;;;8.10;;
908;SDS011;441;51.192;6.788;2023-05-07T10:11:54;8.57;;;8.27;;
908;SDS011;441;51.192;6.788;2023-05-07T10:14:22;8.13;;;7.93;;
908;SDS011;441;51.192;6.788;2023-05-07T10:16:50;8.17;;;7.87;;
908;SDS011;441;51.192;6.788;2023-05-07T10:19:18;8.10;;;7.90;;
908;SDS011;441;51.192;6.788;2023-05-07T10:21:48;8.30;;;8.00;;
908;SDS011;441;51.192;6.788;2023-05-07T10:24:25;8.30;;;8.10;;
908;SDS011;441;51.192;6.788;2023-05-07T10:26:53;8.27;;;7.97;;
908;SDS011;441;51.192;6.788;2023-05-07T10:29:25;7.77;;;7.57;;
908;SDS011;441;51.192;6.788;2023-05-07T10:31:59;7.47;;;7.27;;
908;SDS011;441;51.192;6.788;2023-05-07T10:34:47;7.43;;;7.22;;
908;SDS011;441;51.192;6.788;2023-05-07T10:37:16;7.70;;;7.50;;
908;SDS011;441;51.192;6.788;2023-05-07T10:39:45;8.30;;;8.10;;
908;SDS011;441;51.192;6.788;2023-05-07T10:42:13;8.63;;;8.33;;
908;SDS011;441;51.192;6.788;2023-05-07T10:44:40;8.60;;;8.30;;
908;SDS011;441;51.192;6.788;2023-05-07T10:47:08;8.60;;;8.30;;
908;SDS011;441;51.192;6.788;2023-05-07T10:49:37;6.70;;;6.50;;
908;SDS011;441;51.192;6.788;2023-05-07T10:52:29;8.33;;;8.03;;
908;SDS011;441;51.192;6.788;2023-05-07T10:57:50;8.10;;;7.90;;
908;SDS011;441;51.192;6.788;2023-05-07T11:03:09;8.10;;;7.90;;
908;SDS011;441;51.192;6.788;2023-05-07T11:05:37;8.30;;;8.07;;
908;SDS011;441;51.192;6.788;2023-05-07T11:08:05;7.97;;;7.70;;
908;SDS011;441;51.192;6.788;2023-05-07T11:10:50;8.30;;;8.10;;
908;SDS011;441;51.192;6.788;2023-05-07T11:13:18;8.67;;;8.30;;
908;SDS011;441;51.192;6.788;2023-05-07T11:16:16;8.20;;;7.90;;
908;SDS011;441;51.192;6.788;2023-05-07T11:18:47;7.93;;;7.73;;
908;SDS011;441;51.192;6.788;2023-05-07T11:21:29;8.67;;;8.17;;
908;SDS011;441;51.192;6.788;2023-05-07T11:23:59;8.63;;;8.23;;
908;SDS011;441;51.192;6.788;2023-05-07T11:26:28;8.13;;;7.93;;
908;SDS011;441;51.192;6.788;2023-05-07T11:28:57;8.53;;;8.23;;
908;SDS011;441;51.192;6.788;2023-05-07T11:31:25;8.20;;;8.00;;
908;SDS011;441;51.192;6.788;2023-05-07T11:33:54;8.00;;;7.80;;
908;SDS011;441;51.192;6.788;2023-05-07T11:36:22;8.00;;;7.77;;
908;SDS011;441;51.192;6.788;2023-05-07T11:38:50;7.97;;;7.77;;
908;SDS011;441;51.192;6.788;2023-05-07T11:41:17;7.67;;;7.47;;
908;SDS011;441;51.192;6.788;2023-05-07T11:43:57;7.60;;;7.40;;
908;SDS011;441;51.192;6.788;2023-05-07T11:46:24;7.77;;;7.57;;
908;SDS011;441;51.192;6.788;2023-05-07T11:48:52;7.60;;;7.40;;
908;SDS011;441;51.192;6.788;2023-05-07T11:51:19;8.20;;;8.00;;
908;SDS011;441;51.192;6.788;2023-05-07T11:53:48;8.43;;;8.13;;
908;SDS011;441;51.192;6.788;2023-05-07T11:56:15;7.87;;;7.67;;
908;SDS011;441;51.192;6.788;2023-05-07T11:58:44;7.93;;;7.63;;
908;SDS011;441;51.192;6.788;2023-05-07T12:01:14;8.43;;;8.13;;
908;SDS011;441;51.192;6.788;2023-05-07T12:03:42;8.67;;;8.47;;
908;SDS011;441;51.192;6.788;2023-05-07T12:06:10;7.87;;;7.67;;
908;SDS011;441;51.192;6.788;2023-05-07T12:08:38;8.03;;;7.83;;
908;SDS011;441;51.192;6.788;2023-05-07T12:11:09;8.57;;;8.30;;
908;SDS011;441;51.192;6.788;2023-05-07T12:13:42;8.67;;;8.37;;
908;SDS011;441;51.192;6.788;2023-05-07T12:16:09;8.90;;;8.60;;
908;SDS011;441;51.192;6.788;2023-05-07T12:18:38;12.13;;;11.82;;
908;SDS011;441;51.192;6.788;2023-05-07T12:21:07;14.33;;;13.63;;
908;SDS011;441;51.192;6.788;2023-05-07T12:23:36;15.73;;;14.77;;
908;SDS011;441;51.192;6.788;2023-05-07T12:26:03;21.63;;;19.83;;
908;SDS011;441;51.192;6.788;2023-05-07T12:28:31;19.40;;;17.83;;
908;SDS011;441;51.192;6.788;2023-05-07T12:31:03;22.60;;;18.83;;
908;SDS011;441;51.192;6.788;2023-05-07T12:33:30;18.13;;;16.20;;
908;SDS011;441;51.192;6.788;2023-05-07T12:36:02;16.53;;;15.40;;
908;SDS011;441;51.192;6.788;2023-05-07T12:38:35;18.47;;;17.37;;
908;SDS011;441;51.192;6.788;2023-05-07T12:41:03;18.60;;;17.13;;
908;SDS011;441;51.192;6.788;2023-05-07T12:43:30;17.83;;;16.53;;
908;SDS011;441;51.192;6.788;2023-05-07T12:45:57;18.17;;;17.07;;
908;SDS011;441;51.192;6.788;2023-05-07T12:48:27;17.37;;;16.20;;
908;SDS011;441;51.192;6.788;2023-05-07T12:50:54;14.00;;;13.20;;
908;SDS011;441;51.192;6.788;2023-05-07T12:53:23;16.47;;;15.67;;
908;SDS011;441;51.192;6.788;2023-05-07T12:55:52;18.77;;;17.40;;
908;SDS011;441;51.192;6.788;2023-05-07T12:58:20;22.13;;;20.63;;
908;SDS011;441;51.192;6.788;2023-05-07T13:00:53;21.43;;;19.83;;
908;SDS011;441;51.192;6.788;2023-05-07T13:03:25;19.77;;;18.40;;
908;SDS011;441;51.192;6.788;2023-05-07T13:05:54;18.67;;;17.43;;
908;SDS011;441;51.192;6.788;2023-05-07T13:08:27;15.23;;;14.27;;
908;SDS011;441;51.192;6.788;2023-05-07T13:10:58;16.60;;;15.63;;
908;SDS011;441;51.192;6.788;2023-05-07T13:13:28;15.80;;;14.90;;
908;SDS011;441;51.192;6.788;2023-05-07T13:15:55;16.70;;;15.70;;
908;SDS011;441;51.192;6.788;2023-05-07T13:18:23;15.10;;;14.33;;
908;SDS011;441;51.192;6.788;2023-05-07T13:20:50;15.37;;;14.57;;
908;SDS011;441;51.192;6.788;2023-05-07T13:23:17;16.07;;;15.27;;
908;SDS011;441;51.192;6.788;2023-05-07T13:25:46;14.68;;;13.30;;
908;SDS011;441;51.192;6.788;2023-05-07T13:28:13;15.83;;;14.93;;
908;SDS011;441;51.192;6.788;2023-05-07T13:30:40;14.33;;;13.73;;
908;SDS011;441;51.192;6.788;2023-05-07T13:33:07;16.37;;;15.57;;
908;SDS011;441;51.192;6.788;2023-05-07T13:35:35;14.60;;;14.00;;
908;SDS011;441;51.192;6.788;2023-05-07T13:38:02;14.50;;;13.90;;
908;SDS011;441;51.192;6.788;2023-05-07T13:40:29;13.87;;;13.30;;
908;SDS011;441;51.192;6.788;2023-05-07T13:42:58;14.60;;;14.00;;
908;SDS011;441;51.192;6.788;2023-05-07T13:45:27;13.20;;;12.70;;
908;SDS011;441;51.192;6.788;2023-05-07T13:47:54;13.50;;;13.00;;
908;SDS011;441;51.192;6.788;2023-05-07T13:50:22;12.93;;;12.43;;
908;SDS011;441;51.192;6.788;2023-05-07T13:52:48;13.67;;;13.17;;
908;SDS011;441;51.192;6.788;2023-05-07T13:55:16;13.40;;;12.90;;
908;SDS011;441;51.192;6.788;2023-05-07T13:57:44;13.17;;;12.77;;
908;SDS011;441;51.192;6.788;2023-05-07T14:00:13;12.77;;;12.30;;
908;SDS011;441;51.192;6.788;2023-05-07T14:02:41;14.33;;;13.73;;
908;SDS011;441;51.192;6.788;2023-05-07T14:05:08;13.90;;;13.40;;
908;SDS011;441;51.192;6.788;2023-05-07T14:07:35;14.53;;;14.10;;
908;SDS011;441;51.192;6.788;2023-05-07T14:10:02;15.37;;;14.67;;
908;SDS011;441;51.192;6.788;2023-05-07T14:12:31;15.40;;;14.73;;
908;SDS011;441;51.192;6.788;2023-05-07T14:14:58;14.83;;;14.17;;
908;SDS011;441;51.192;6.788;2023-05-07T14:17:26;14.70;;;14.00;;
908;SDS011;441;51.192;6.788;2023-05-07T14:19:53;13.77;;;13.37;;
908;SDS011;441;51.192;6.788;2023-05-07T14:22:20;17.30;;;16.40;;
908;SDS011;441;51.192;6.788;2023-05-07T14:24:48;15.27;;;14.57;;
908;SDS011;441;51.192;6.788;2023-05-07T14:27:16;14.23;;;13.63;;
908;SDS011;441;51.192;6.788;2023-05-07T14:29:43;13.07;;;12.57;;
908;SDS011;441;51.192;6.788;2023-05-07T14:32:10;13.40;;;12.90;;
908;SDS011;441;51.192;6.788;2023-05-07T14:34:39;14.23;;;13.73;;
908;SDS011;441;51.192;6.788;2023-05-07T14:37:05;15.50;;;14.80;;
908;SDS011;441;51.192;6.788;2023-05-07T14:39:32;13.90;;;13.50;;
908;SDS011;441;51.192;6.788;2023-05-07T14:41:59;13.70;;;13.20;;
908;SDS011;441;51.192;6.788;2023-05-07T14:44:26;13.60;;;13.07;;
908;SDS011;441;51.192;6.788;2023-05-07T14:46:53;14.73;;;14.13;;
908;SDS011;441;51.192;6.788;2023-05-07T14:49:20;15.40;;;14.80;;
908;SDS011;441;51.192;6.788;2023-05-07T14:51:48;15.23;;;14.63;;
908;SDS011;441;51.192;6.788;2023-05-07T14:54:15;17.10;;;16.30;;
908;SDS011;441;51.192;6.788;2023-05-07T14:56:42;16.17;;;15.37;;
908;SDS011;441;51.192;6.788;2023-05-07T14:59:09;14.40;;;13.77;;
908;SDS011;441;51.192;6.788;2023-05-07T15:01:36;15.70;;;15.10;;
908;SDS011;441;51.192;6.788;2023-05-07T15:04:05;16.30;;;15.60;;
908;SDS011;441;51.192;6.788;2023-05-07T15:06:32;16.10;;;15.40;;
908;SDS011;441;51.192;6.788;2023-05-07T15:09:00;15.40;;;14.70;;
908;SDS011;441;51.192;6.788;2023-05-07T15:11:28;15.07;;;14.57;;
908;SDS011;441;51.192;6.788;2023-05-07T15:13:55;15.33;;;14.53;;
908;SDS011;441;51.192;6.788;2023-05-07T15:16:22;15.70;;;15.00;;
908;SDS011;441;51.192;6.788;2023-05-07T15:18:49;16.40;;;15.80;;
908;SDS011;441;51.192;6.788;2023-05-07T15:21:16;14.67;;;14.13;;
908;SDS011;441;51.192;6.788;2023-05-07T15:23:43;15.53;;;14.83;;
908;SDS011;441;51.192;6.788;2023-05-07T15:26:11;14.97;;;14.30;;
908;SDS011;441;51.192;6.788;2023-05-07T15:28:38;15.10;;;14.43;;
908;SDS011;441;51.192;6.788;2023-05-07T15:31:05;15.00;;;14.50;;
908;SDS011;441;51.192;6.788;2023-05-07T15:33:32;14.80;;;14.20;;
908;SDS011;441;51.192;6.788;2023-05-07T15:35:59;14.93;;;14.43;;
908;SDS011;441;51.192;6.788;2023-05-07T15:38:28;14.03;;;13.53;;
908;SDS011;441;51.192;6.788;2023-05-07T15:40:55;14.90;;;14.40;;
908;SDS011;441;51.192;6.788;2023-05-07T15:43:23;14.77;;;14.27;;
908;SDS011;441;51.192;6.788;2023-05-07T15:45:50;15.33;;;14.73;;
908;SDS011;441;51.192;6.788;2023-05-07T15:48:18;16.20;;;15.40;;
908;SDS011;441;51.192;6.788;2023-05-07T15:50:45;16.27;;;15.67;;
908;SDS011;441;51.192;6.788;2023-05-07T15:53:12;17.27;;;16.47;;
908;SDS011;441;51.192;6.788;2023-05-07T15:55:39;16.60;;;16.00;;
908;SDS011;441;51.192;6.788;2023-05-07T15:58:08;16.67;;;15.77;;